Time;durP1;ratioP1;P1;durP2;ratioP2;P2;SDS_P1;SDS_P2;PMS_P1;PMS_P2;Temp;Humidity;BMP_temperature;BMP_pressure;BME280_temperature;BME280_humidity;BME280_pressure;Samples;Min_cycle;Max_cycle;Signal;HPM_P1;HPM_P2
2021/12/08 00:02:25;;;;;;;1.23;0.57;;;4.20;63.30;;;;;;5089003;28;20290;-65
2021/12/08 00:04:51;;;;;;;0.85;0.45;;;4.30;61.80;;;;;;5070495;28;20189;-64
2021/12/08 00:07:16;;;;;;;0.60;0.50;;;4.30;61.60;;;;;;5069848;28;20642;-64
2021/12/08 00:14:54;;;;;;;0.97;0.67;;;4.30;63.10;;;;;;5086243;28;20267;-65
2021/12/08 00:17:20;;;;;;;0.75;0.50;;;4.30;63.20;;;;;;5088283;28;20525;-65
2021/12/08 00:19:46;;;;;;;0.70;0.50;;;4.30;64.80;;;;;;5088687;28;20206;-64
2021/12/08 00:22:12;;;;;;;0.90;0.70;;;4.30;67.90;;;;;;5089101;28;20482;-65
2021/12/08 00:24:37;;;;;;;0.50;0.40;;;4.20;67.10;;;;;;5088811;28;20190;-65
2021/12/08 00:27:04;;;;;;;2.50;0.63;;;4.20;70.10;;;;;;5086980;28;20510;-64
2021/12/08 00:29:29;;;;;;;0.60;0.60;;;4.20;71.80;;;;;;5089016;28;20572;-65
2021/12/08 00:31:56;;;;;;;0.90;0.70;;;4.10;78.70;;;;;;5088436;28;20449;-64
2021/12/08 00:34:23;;;;;;;1.77;0.70;;;4.20;85.50;;;;;;5089068;28;20238;-62
2021/12/08 00:36:52;;;;;;;0.80;0.50;;;4.00;85.50;;;;;;5088680;28;20196;-66
2021/12/08 00:39:17;;;;;;;1.33;0.63;;;4.00;86.10;;;;;;5088581;28;20435;-64
2021/12/08 00:41:43;;;;;;;0.67;0.57;;;3.90;86.00;;;;;;5070139;28;20563;-65
2021/12/08 00:44:09;;;;;;;1.10;0.83;;;3.80;83.10;;;;;;5088672;28;20276;-65
2021/12/08 00:46:36;;;;;;;0.50;0.40;;;3.70;87.40;;;;;;5088263;28;20932;-64
2021/12/08 00:49:03;;;;;;;0.73;0.60;;;3.50;88.50;;;;;;5088468;28;21114;-64
2021/12/08 00:51:30;;;;;;;1.23;0.50;;;3.40;91.80;;;;;;5086844;28;20461;-65
2021/12/08 00:53:57;;;;;;;2.03;0.70;;;3.40;92.80;;;;;;5087196;28;20682;-65
2021/12/08 00:56:22;;;;;;;0.73;0.73;;;3.40;94.50;;;;;;5088314;28;20503;-65
2021/12/08 00:58:48;;;;;;;0.80;0.60;;;3.30;95.70;;;;;;5088113;28;20519;-65
2021/12/08 01:01:15;;;;;;;0.90;0.60;;;3.30;98.30;;;;;;5084813;28;20194;-65
2021/12/08 01:03:41;;;;;;;0.80;0.60;;;3.20;99.50;;;;;;5087604;28;20230;-63
2021/12/08 01:06:07;;;;;;;0.73;0.57;;;3.10;99.90;;;;;;5085734;28;20475;-64
2021/12/08 01:08:33;;;;;;;0.70;0.50;;;3.10;99.90;;;;;;5069057;28;20447;-64
2021/12/08 01:11:06;;;;;;;1.13;0.60;;;3.10;99.90;;;;;;5087181;28;20300;-65
2021/12/08 01:13:32;;;;;;;2.90;0.97;;;3.10;99.90;;;;;;5084268;28;20432;-66
2021/12/08 01:15:59;;;;;;;0.70;0.60;;;3.00;99.90;;;;;;5086714;28;20446;-65
2021/12/08 01:18:27;;;;;;;1.00;0.93;;;3.00;99.90;;;;;;5086118;28;20764;-64
2021/12/08 01:20:56;;;;;;;3.90;1.70;;;3.10;99.90;;;;;;5086874;28;20436;-64
2021/12/08 01:23:23;;;;;;;1.23;1.00;;;3.10;99.90;;;;;;5088221;28;20466;-64
2021/12/08 01:25:48;;;;;;;1.00;0.80;;;3.10;99.90;;;;;;5086412;28;20450;-65
2021/12/08 01:28:18;;;;;;;0.50;0.40;;;3.10;99.90;;;;;;5088192;28;20418;-65
2021/12/08 01:30:44;;;;;;;0.90;0.80;;;3.00;99.90;;;;;;5087084;28;20456;-65
2021/12/08 01:33:10;;;;;;;0.70;0.70;;;3.00;99.90;;;;;;5087845;28;20440;-63
2021/12/08 01:35:36;;;;;;;0.67;0.67;;;3.00;99.90;;;;;;5070161;28;20458;-62
2021/12/08 01:38:02;;;;;;;1.50;0.67;;;2.90;99.90;;;;;;5088094;28;20218;-63
2021/12/08 01:40:28;;;;;;;0.60;0.50;;;3.00;99.90;;;;;;5086573;28;20859;-62
2021/12/08 01:42:57;;;;;;;1.00;0.70;;;2.90;99.90;;;;;;5087675;28;20466;-63
2021/12/08 01:48:12;;;;;;;2.03;0.65;;;2.90;99.90;;;;;;5088004;28;20932;-63
2021/12/08 01:50:40;;;;;;;0.60;0.60;;;3.00;99.90;;;;;;5087634;28;20194;-63
2021/12/08 01:53:08;;;;;;;0.60;0.60;;;3.00;99.90;;;;;;5087680;28;20199;-62
2021/12/08 01:55:35;;;;;;;1.33;0.80;;;3.00;99.90;;;;;;5087869;28;20208;-63
2021/12/08 01:58:01;;;;;;;1.50;0.50;;;3.10;99.90;;;;;;5086051;28;20647;-64
2021/12/08 02:00:36;;;;;;;1.20;0.80;;;2.90;99.90;;;;;;5086697;28;20276;-64
2021/12/08 02:03:02;;;;;;;1.63;0.65;;;3.00;99.90;;;;;;5087974;28;20683;-64
2021/12/08 02:05:28;;;;;;;1.00;0.70;;;3.10;99.90;;;;;;5087364;28;20225;-63
2021/12/08 02:07:54;;;;;;;0.93;0.80;;;3.10;99.90;;;;;;5087208;28;20200;-65
2021/12/08 02:10:20;;;;;;;1.83;0.80;;;3.10;99.90;;;;;;5069440;28;20431;-64
2021/12/08 02:12:47;;;;;;;1.02;0.98;;;3.20;99.90;;;;;;5086884;28;20187;-64
2021/12/08 02:15:15;;;;;;;1.10;0.60;;;3.20;99.90;;;;;;5078066;28;20530;-64
2021/12/08 02:17:41;;;;;;;2.17;1.02;;;3.20;99.90;;;;;;5087617;28;20483;-65
2021/12/08 02:20:09;;;;;;;1.73;0.80;;;3.30;99.90;;;;;;5087482;28;20644;-64
2021/12/08 02:22:35;;;;;;;0.95;0.80;;;3.30;99.90;;;;;;5085557;28;20227;-66
2021/12/08 02:25:01;;;;;;;1.03;0.93;;;3.40;99.90;;;;;;5086012;28;20204;-65
2021/12/08 02:27:26;;;;;;;2.00;0.83;;;3.40;99.90;;;;;;5086171;28;20208;-65
2021/12/08 02:29:59;;;;;;;0.80;0.70;;;3.50;99.90;;;;;;5069354;28;20220;-65
2021/12/08 02:46:41;;;;;;;1.05;0.60;;;3.60;99.90;;;;;;5086214;28;20191;-66
2021/12/08 02:48:57;;;;;;;0.70;0.70;;;3.90;99.90;;;;;;5090365;28;20616;-66
2021/12/08 02:51:23;;;;;;;1.23;0.80;;;4.00;99.90;;;;;;5091185;28;20212;-66
2021/12/08 02:53:49;;;;;;;0.73;0.73;;;4.00;99.90;;;;;;5091139;28;20474;-65
2021/12/08 02:56:16;;;;;;;1.20;0.90;;;4.10;99.90;;;;;;5091022;28;20240;-65
2021/12/08 02:58:42;;;;;;;1.05;0.88;;;4.20;99.90;;;;;;5090886;28;20426;-66
2021/12/08 03:01:10;;;;;;;1.33;0.60;;;4.10;99.90;;;;;;5089731;28;21016;-66
2021/12/08 03:03:37;;;;;;;1.05;0.95;;;4.20;99.90;;;;;;5086720;28;20217;-65
2021/12/08 03:06:03;;;;;;;2.03;0.70;;;4.10;99.90;;;;;;5090277;28;20304;-65
2021/12/08 03:08:29;;;;;;;1.20;1.10;;;4.10;99.90;;;;;;5089934;28;20925;-63
2021/12/08 03:10:55;;;;;;;0.70;0.60;;;4.20;99.90;;;;;;5090596;28;20704;-64
2021/12/08 03:13:43;;;;;;;1.10;0.93;;;4.20;99.90;;;;;;5089732;28;20523;-64
2021/12/08 03:16:11;;;;;;;2.40;0.70;;;4.20;99.90;;;;;;5088037;28;20477;-63
2021/12/08 03:18:39;;;;;;;1.20;1.10;;;4.20;99.90;;;;;;5091236;28;20447;-63
2021/12/08 03:21:07;;;;;;;0.73;0.73;;;4.20;99.90;;;;;;5088885;28;20430;-63
2021/12/08 03:24:37;;;;;;;1.40;0.90;;;4.20;99.90;;;;;;5090682;28;20468;-63
2021/12/08 03:26:32;;;;;;;1.25;0.90;;;4.20;99.90;;;;;;5077350;28;20431;-63
2021/12/08 03:29:07;;;;;;;0.80;0.77;;;4.30;99.90;;;;;;5091366;28;20183;-64
2021/12/08 03:31:41;;;;;;;2.00;1.33;;;4.20;99.90;;;;;;5087468;28;20460;-64
2021/12/08 03:34:07;;;;;;;0.93;0.83;;;4.10;99.90;;;;;;5091436;28;20477;-64
2021/12/08 03:36:33;;;;;;;3.03;0.80;;;4.20;99.90;;;;;;5091191;28;20448;-65
2021/12/08 03:38:59;;;;;;;1.10;0.80;;;4.20;99.90;;;;;;5090482;28;20431;-66
2021/12/08 03:41:26;;;;;;;1.17;1.07;;;4.20;99.90;;;;;;5089453;28;20418;-64
2021/12/08 03:43:52;;;;;;;1.30;1.07;;;4.20;99.90;;;;;;5090044;28;20494;-68
2021/12/08 03:46:18;;;;;;;1.30;1.17;;;4.20;99.90;;;;;;5089927;28;20424;-64
2021/12/08 03:48:49;;;;;;;0.90;0.70;;;4.10;99.90;;;;;;5090262;28;20829;-63
2021/12/08 03:51:16;;;;;;;0.93;0.85;;;4.20;99.90;;;;;;5088070;28;20435;-64
2021/12/08 03:53:43;;;;;;;1.48;1.17;;;4.20;99.90;;;;;;5090104;28;20198;-64
2021/12/08 03:56:09;;;;;;;1.80;1.23;;;4.10;99.90;;;;;;5089690;28;20200;-64
2021/12/08 03:58:35;;;;;;;0.90;0.70;;;4.20;99.90;;;;;;5088473;28;20438;-63
2021/12/08 04:01:04;;;;;;;3.23;1.27;;;4.10;99.90;;;;;;5088318;28;20242;-64
2021/12/08 04:03:32;;;;;;;1.10;1.00;;;4.10;99.90;;;;;;5090040;28;20472;-64
2021/12/08 04:06:02;;;;;;;1.20;0.93;;;4.00;99.90;;;;;;5088997;28;20967;-64
2021/12/08 04:08:39;;;;;;;1.20;1.10;;;4.00;99.90;;;;;;5089745;28;20477;-64
2021/12/08 04:11:06;;;;;;;1.20;1.10;;;4.00;99.90;;;;;;5088169;28;20188;-63
2021/12/08 04:13:40;;;;;;;1.20;1.10;;;4.00;99.90;;;;;;5090224;28;20510;-64
2021/12/08 04:16:08;;;;;;;1.43;0.97;;;4.00;99.90;;;;;;5089384;28;20485;-64
2021/12/08 04:18:34;;;;;;;1.20;1.10;;;4.00;99.90;;;;;;5089586;28;20428;-66
2021/12/08 04:21:03;;;;;;;1.20;1.13;;;4.00;99.90;;;;;;5089448;28;20277;-65
2021/12/08 04:23:35;;;;;;;1.90;1.00;;;3.90;99.90;;;;;;5089612;28;20507;-65
2021/12/08 04:26:02;;;;;;;0.73;0.73;;;3.90;99.90;;;;;;5088476;28;20454;-65
2021/12/08 04:28:30;;;;;;;1.20;1.10;;;4.00;99.90;;;;;;5090475;28;20201;-65
2021/12/08 04:31:05;;;;;;;1.20;1.10;;;3.90;99.90;;;;;;5090361;28;20310;-65
2021/12/08 04:33:33;;;;;;;0.90;0.90;;;3.90;99.90;;;;;;5088566;28;20196;-65
2021/12/08 04:35:59;;;;;;;0.88;0.88;;;3.90;99.90;;;;;;5087285;28;20557;-66
2021/12/08 04:38:33;;;;;;;1.00;1.00;;;3.90;99.90;;;;;;5089732;28;20705;-64
2021/12/08 04:41:06;;;;;;;0.95;0.80;;;3.90;99.90;;;;;;5089365;28;20553;-67
2021/12/08 04:43:46;;;;;;;2.05;0.85;;;3.90;99.90;;;;;;5088098;28;20225;-68
2021/12/08 04:52:21;;;;;;;1.73;0.80;;;3.90;99.90;;;;;;5087082;28;20196;-67
2021/12/08 05:00:42;;;;;;;1.48;1.00;;;3.90;99.90;;;;;;5081426;28;20529;-69
2021/12/08 05:08:42;;;;;;;1.00;1.00;;;3.90;99.90;;;;;;5086402;28;20438;-69
2021/12/08 05:11:17;;;;;;;1.15;1.05;;;4.00;99.90;;;;;;5086552;28;20427;-69
2021/12/08 05:13:46;;;;;;;1.10;1.00;;;3.90;99.90;;;;;;5081064;28;20282;-69
2021/12/08 05:16:12;;;;;;;1.48;1.25;;;3.90;99.90;;;;;;5084830;28;20488;-68
2021/12/08 05:18:42;;;;;;;0.93;0.88;;;3.90;99.90;;;;;;5086678;28;20195;-68
2021/12/08 05:21:14;;;;;;;1.10;1.00;;;3.90;99.90;;;;;;5084940;28;20197;-69
2021/12/08 05:23:51;;;;;;;1.33;1.00;;;3.80;99.90;;;;;;5086250;28;21019;-69
2021/12/08 05:26:54;;;;;;;1.30;1.20;;;3.80;99.90;;;;;;5083246;28;20182;-68
2021/12/08 05:29:27;;;;;;;1.13;1.02;;;3.70;99.90;;;;;;5085894;28;20192;-69
2021/12/08 05:31:55;;;;;;;1.00;0.90;;;3.80;99.90;;;;;;5086047;28;20193;-69
2021/12/08 05:34:21;;;;;;;0.93;0.93;;;3.80;99.90;;;;;;5084511;28;20226;-69
2021/12/08 05:36:47;;;;;;;1.10;0.90;;;3.80;99.90;;;;;;5085702;28;20647;-68
2021/12/08 05:39:19;;;;;;;1.02;0.90;;;3.80;99.90;;;;;;5085518;28;20184;-69
2021/12/08 05:41:49;;;;;;;0.90;0.90;;;3.80;99.90;;;;;;5085093;28;20675;-69
2021/12/08 05:44:15;;;;;;;1.20;1.10;;;3.80;99.90;;;;;;5085125;28;20790;-68
2021/12/08 05:46:44;;;;;;;1.08;1.05;;;3.80;99.90;;;;;;5085157;28;20184;-69
2021/12/08 05:49:16;;;;;;;0.80;0.80;;;3.80;99.90;;;;;;5080425;28;20245;-69
2021/12/08 05:51:43;;;;;;;2.03;1.20;;;3.90;99.90;;;;;;5080853;28;20183;-69
2021/12/08 05:54:22;;;;;;;1.05;0.95;;;3.80;99.90;;;;;;5085442;28;20275;-69
2021/12/08 05:56:54;;;;;;;1.05;1.05;;;3.80;99.90;;;;;;5082950;28;20189;-69
2021/12/08 05:59:20;;;;;;;1.40;1.27;;;4.00;99.90;;;;;;5085805;28;20192;-69
2021/12/08 06:01:53;;;;;;;1.60;1.43;;;3.90;99.90;;;;;;5084480;28;20208;-69
2021/12/08 06:04:20;;;;;;;2.17;1.92;;;3.90;99.90;;;;;;5086015;28;21112;-69
2021/12/08 06:06:47;;;;;;;1.80;1.70;;;3.90;99.90;;;;;;5083926;28;20232;-69
2021/12/08 06:09:16;;;;;;;1.45;1.35;;;3.90;99.90;;;;;;5086338;28;21352;-69
2021/12/08 06:11:43;;;;;;;1.42;1.25;;;3.80;99.90;;;;;;5085506;28;20193;-69
2021/12/08 06:14:10;;;;;;;1.35;1.25;;;3.80;99.90;;;;;;5087414;28;20717;-68
2021/12/08 06:16:39;;;;;;;1.60;1.50;;;3.80;99.90;;;;;;5089708;28;20193;-69
2021/12/08 06:19:07;;;;;;;1.30;1.20;;;3.90;99.90;;;;;;5088272;28;20423;-69
2021/12/08 06:21:34;;;;;;;1.90;1.80;;;3.90;99.90;;;;;;5085007;28;20534;-69
2021/12/08 06:24:02;;;;;;;1.98;1.70;;;3.80;99.90;;;;;;5089616;28;20220;-69
2021/12/08 06:26:29;;;;;;;1.70;1.60;;;3.80;99.90;;;;;;5088836;28;20192;-69
2021/12/08 06:28:56;;;;;;;1.57;1.47;;;3.80;99.90;;;;;;5089206;28;20192;-69
2021/12/08 06:31:25;;;;;;;1.70;1.60;;;3.70;99.90;;;;;;5089628;28;20940;-69
2021/12/08 06:33:51;;;;;;;1.70;1.40;;;3.70;99.90;;;;;;5089391;28;20310;-69
2021/12/08 06:36:27;;;;;;;1.50;1.40;;;3.70;99.90;;;;;;5089472;28;20196;-69
2021/12/08 06:38:53;;;;;;;1.80;1.70;;;3.70;99.90;;;;;;5087896;28;20191;-68
2021/12/08 06:41:33;;;;;;;1.77;1.67;;;3.70;99.90;;;;;;5089333;28;20180;-68
2021/12/08 06:44:16;;;;;;;1.75;1.65;;;3.70;99.90;;;;;;5085238;28;20239;-68
2021/12/08 06:46:42;;;;;;;2.00;1.90;;;3.60;99.90;;;;;;5089098;28;20179;-68
2021/12/08 06:49:12;;;;;;;1.55;1.45;;;3.70;99.90;;;;;;5087892;28;20520;-68
2021/12/08 06:51:43;;;;;;;1.48;1.38;;;3.70;99.90;;;;;;5087894;28;20208;-68
2021/12/08 06:54:23;;;;;;;0.85;0.85;;;3.80;99.90;;;;;;5089289;28;20563;-68
2021/12/08 06:56:55;;;;;;;1.25;1.15;;;3.80;99.90;;;;;;5087202;28;20185;-68
2021/12/08 06:59:30;;;;;;;1.10;1.00;;;3.80;99.90;;;;;;5088000;28;20171;-68
2021/12/08 07:02:08;;;;;;;1.10;1.00;;;3.80;99.90;;;;;;5083704;28;20254;-69
2021/12/08 07:05:10;;;;;;;1.08;1.00;;;3.80;99.90;;;;;;5069711;28;20441;-69
2021/12/08 07:07:37;;;;;;;1.17;1.07;;;3.90;99.90;;;;;;5086071;28;20223;-69
2021/12/08 07:10:09;;;;;;;2.20;2.10;;;3.90;99.90;;;;;;5088571;28;20430;-69
2021/12/08 07:12:42;;;;;;;1.60;1.50;;;3.90;99.90;;;;;;5088548;28;20189;-69
2021/12/08 07:15:15;;;;;;;2.03;1.50;;;4.00;99.90;;;;;;5088676;28;20180;-69
2021/12/08 07:17:44;;;;;;;2.60;2.40;;;3.90;99.90;;;;;;5088670;28;20249;-69
2021/12/08 07:20:17;;;;;;;3.20;2.90;;;3.80;99.90;;;;;;5088533;28;20430;-68
2021/12/08 07:22:50;;;;;;;2.50;2.30;;;3.80;99.90;;;;;;5086188;28;20485;-69
2021/12/08 07:25:18;;;;;;;2.55;2.35;;;3.80;99.90;;;;;;5088064;28;20590;-69
2021/12/08 07:27:44;;;;;;;2.20;2.10;;;3.80;99.90;;;;;;5087422;28;20194;-68
2021/12/08 07:30:19;;;;;;;3.90;2.67;;;3.80;99.90;;;;;;5087503;28;20435;-69
2021/12/08 07:32:45;;;;;;;6.00;3.50;;;3.80;99.90;;;;;;5087495;28;20423;-69
2021/12/08 07:35:21;;;;;;;2.97;2.73;;;3.80;99.90;;;;;;5085781;28;20201;-69
2021/12/08 07:37:47;;;;;;;2.30;2.13;;;3.80;99.90;;;;;;5082881;28;20423;-69
2021/12/08 07:40:21;;;;;;;10.70;7.60;;;3.70;99.90;;;;;;5086249;28;20434;-69
2021/12/08 07:42:50;;;;;;;4.63;4.22;;;3.70;99.90;;;;;;5083460;28;20474;-69
2021/12/08 07:45:31;;;;;;;3.42;3.13;;;3.70;99.90;;;;;;5083465;28;20242;-69
2021/12/08 07:47:58;;;;;;;5.13;2.73;;;3.60;99.90;;;;;;5084848;28;20655;-69
2021/12/08 07:50:33;;;;;;;2.87;2.63;;;3.60;99.90;;;;;;5085973;28;20941;-69
2021/12/08 07:53:00;;;;;;;2.33;2.13;;;3.60;99.90;;;;;;5087452;28;20430;-69
2021/12/08 07:55:38;;;;;;;2.83;2.53;;;3.60;99.90;;;;;;5087741;28;20903;-70
2021/12/08 07:58:06;;;;;;;2.67;2.40;;;3.60;99.90;;;;;;5086893;28;20432;-69
2021/12/08 08:00:34;;;;;;;2.07;1.87;;;3.60;99.90;;;;;;5086816;28;20521;-70
2021/12/08 08:03:00;;;;;;;1.80;1.70;;;3.70;99.90;;;;;;5086629;28;20479;-69
2021/12/08 08:05:28;;;;;;;3.95;2.10;;;3.70;99.90;;;;;;5086844;28;20929;-69
2021/12/08 08:07:57;;;;;;;2.30;2.10;;;3.70;99.90;;;;;;5085944;28;20279;-69
2021/12/08 08:10:24;;;;;;;1.60;1.50;;;3.60;99.90;;;;;;5086518;28;20185;-69
2021/12/08 08:12:51;;;;;;;1.47;1.37;;;3.60;99.90;;;;;;5048631;28;20459;-69
2021/12/08 08:15:22;;;;;;;1.70;1.45;;;3.50;99.90;;;;;;5086766;28;20431;-69
2021/12/08 08:17:52;;;;;;;1.53;1.40;;;3.60;99.90;;;;;;5086458;28;20483;-69
2021/12/08 08:20:26;;;;;;;1.10;0.83;;;3.50;99.90;;;;;;5086917;28;20754;-69
2021/12/08 08:22:53;;;;;;;1.50;1.40;;;3.60;99.90;;;;;;5086070;28;20558;-69
2021/12/08 08:25:23;;;;;;;2.30;2.03;;;3.60;99.90;;;;;;5086523;28;20431;-69
2021/12/08 08:27:50;;;;;;;0.98;0.80;;;3.60;99.90;;;;;;5086656;28;20427;-68
2021/12/08 08:30:24;;;;;;;1.50;1.40;;;3.60;99.90;;;;;;5086874;28;20189;-69
2021/12/08 08:32:53;;;;;;;1.60;1.50;;;3.60;99.90;;;;;;5086589;28;20464;-68
2021/12/08 08:35:24;;;;;;;1.23;1.00;;;3.60;99.90;;;;;;5086487;28;20569;-68
2021/12/08 08:37:52;;;;;;;2.00;1.77;;;3.70;99.90;;;;;;5086186;28;20210;-69
2021/12/08 08:40:24;;;;;;;1.13;1.05;;;3.70;99.90;;;;;;5085117;28;20190;-69
2021/12/08 08:42:51;;;;;;;1.77;1.23;;;3.70;99.90;;;;;;5086386;28;20213;-68
2021/12/08 08:45:44;;;;;;;1.67;1.58;;;3.70;99.90;;;;;;5086567;28;20513;-68
2021/12/08 08:48:17;;;;;;;2.35;1.63;;;3.80;99.90;;;;;;5082832;28;20213;-68
2021/12/08 08:50:56;;;;;;;0.90;0.90;;;3.70;99.90;;;;;;5084482;28;21051;-69
2021/12/08 08:53:25;;;;;;;1.03;0.80;;;3.70;99.90;;;;;;5086232;28;20653;-68
2021/12/08 08:56:04;;;;;;;1.10;1.00;;;3.70;99.90;;;;;;5084137;28;20435;-68
2021/12/08 08:58:32;;;;;;;2.55;1.20;;;3.70;99.90;;;;;;5085678;28;20298;-69
2021/12/08 09:01:01;;;;;;;1.40;1.30;;;3.70;99.90;;;;;;5085858;28;20201;-69
2021/12/08 09:03:32;;;;;;;1.00;0.90;;;3.70;99.90;;;;;;5085631;28;20238;-68
2021/12/08 09:06:10;;;;;;;0.60;0.50;;;3.80;99.90;;;;;;5085458;28;20503;-68
2021/12/08 09:08:38;;;;;;;1.10;1.10;;;3.80;99.90;;;;;;5082915;28;20483;-68
2021/12/08 09:11:35;;;;;;;1.90;0.80;;;3.90;99.90;;;;;;5085716;28;20215;-68
2021/12/08 09:14:11;;;;;;;0.98;0.70;;;3.80;99.90;;;;;;5075077;28;20471;-68
2021/12/08 09:16:48;;;;;;;0.60;0.50;;;3.90;99.90;;;;;;5082496;28;20187;-68
2021/12/08 09:19:17;;;;;;;1.23;0.80;;;3.90;99.90;;;;;;5085556;28;20212;-68
2021/12/08 09:21:57;;;;;;;0.70;0.50;;;3.90;99.90;;;;;;5084205;28;20234;-68
2021/12/08 09:24:37;;;;;;;1.03;0.93;;;4.00;99.90;;;;;;5085545;28;20199;-68
2021/12/08 09:27:08;;;;;;;1.83;1.73;;;4.00;99.90;;;;;;5080796;28;20513;-68
2021/12/08 09:29:45;;;;;;;1.57;1.40;;;4.00;99.90;;;;;;5085076;28;20424;-68
2021/12/08 09:32:26;;;;;;;2.60;1.40;;;4.10;99.90;;;;;;5085384;28;20774;-69
2021/12/08 09:34:59;;;;;;;0.90;0.90;;;4.10;99.90;;;;;;5085429;28;20448;-68
2021/12/08 09:37:31;;;;;;;0.80;0.80;;;4.10;99.90;;;;;;5081018;28;20194;-68
2021/12/08 09:40:04;;;;;;;0.82;0.82;;;4.10;99.90;;;;;;5080322;28;20430;-69
2021/12/08 09:42:37;;;;;;;1.00;0.80;;;4.10;99.90;;;;;;5080336;28;20270;-68
2021/12/08 09:45:15;;;;;;;0.73;0.60;;;4.10;99.90;;;;;;5083679;28;20997;-68
2021/12/08 09:47:40;;;;;;;3.03;1.10;;;4.20;99.90;;;;;;5083552;28;20289;-68
2021/12/08 09:50:09;;;;;;;2.03;1.43;;;4.20;99.90;;;;;;5084926;28;20522;-68
2021/12/08 09:52:35;;;;;;;1.10;1.00;;;4.20;99.90;;;;;;5083440;28;20446;-69
2021/12/08 09:55:03;;;;;;;2.27;1.77;;;4.20;99.90;;;;;;5085252;28;20260;-68
2021/12/08 09:57:30;;;;;;;2.00;1.80;;;4.20;99.90;;;;;;5084463;28;20188;-68
2021/12/08 09:59:56;;;;;;;4.90;2.63;;;4.20;99.90;;;;;;5083782;28;20431;-68
2021/12/08 10:02:30;;;;;;;1.30;1.00;;;4.40;99.90;;;;;;5084859;28;20562;-68
2021/12/08 10:04:58;;;;;;;0.87;0.87;;;4.10;99.90;;;;;;5085219;28;20424;-69
2021/12/08 10:07:25;;;;;;;10.05;6.07;;;4.10;99.90;;;;;;5083350;28;20550;-68
2021/12/08 10:09:51;;;;;;;4.40;2.60;;;4.10;99.90;;;;;;5066955;28;20193;-68
2021/12/08 10:12:17;;;;;;;0.80;0.80;;;4.20;99.90;;;;;;5085190;28;20426;-68
2021/12/08 10:14:46;;;;;;;1.00;0.73;;;4.20;99.90;;;;;;5083737;28;20434;-68
2021/12/08 10:17:13;;;;;;;1.07;1.03;;;4.20;99.90;;;;;;5085001;28;20428;-69
2021/12/08 10:19:39;;;;;;;1.40;1.13;;;4.20;99.90;;;;;;5083392;28;20445;-68
2021/12/08 10:22:15;;;;;;;1.93;0.97;;;4.20;99.90;;;;;;5085392;28;20432;-69
2021/12/08 10:24:41;;;;;;;1.30;1.20;;;4.20;99.90;;;;;;5084052;28;20585;-69
2021/12/08 10:27:08;;;;;;;1.63;1.10;;;4.30;99.90;;;;;;5084890;28;20994;-68
2021/12/08 10:29:34;;;;;;;1.17;0.90;;;4.30;99.90;;;;;;5085402;28;20420;-68
2021/12/08 10:32:03;;;;;;;1.13;1.10;;;4.30;99.90;;;;;;5083692;28;20439;-69
2021/12/08 10:34:47;;;;;;;1.57;1.47;;;4.40;99.90;;;;;;5070252;28;20432;-68
2021/12/08 10:37:19;;;;;;;1.23;1.20;;;4.40;99.90;;;;;;5084201;28;20425;-68
2021/12/08 10:39:47;;;;;;;1.10;0.93;;;4.40;99.90;;;;;;5080022;28;20486;-69
2021/12/08 10:42:13;;;;;;;2.63;2.20;;;4.40;99.90;;;;;;5062819;28;20513;-68
2021/12/08 10:44:54;;;;;;;2.60;2.40;;;4.40;99.90;;;;;;5083541;28;20546;-69
2021/12/08 10:47:26;;;;;;;2.28;2.17;;;4.50;99.90;;;;;;5084791;28;20961;-68
2021/12/08 10:55:53;;;;;;;1.90;1.80;;;4.50;99.90;;;;;;5081805;28;20194;-69
2021/12/08 10:58:25;;;;;;;1.80;1.70;;;4.50;99.90;;;;;;5083268;28;20209;-68
2021/12/08 11:00:52;;;;;;;2.03;1.80;;;4.50;99.90;;;;;;5087319;28;20201;-68
2021/12/08 11:03:18;;;;;;;2.60;2.40;;;4.60;99.90;;;;;;5086615;28;20464;-68
2021/12/08 11:05:53;;;;;;;2.53;2.33;;;4.60;99.90;;;;;;5088281;28;20452;-68
2021/12/08 11:08:36;;;;;;;2.50;1.77;;;4.70;99.90;;;;;;5088168;28;20439;-68
2021/12/08 11:11:20;;;;;;;1.63;1.53;;;4.80;99.90;;;;;;5088142;28;20448;-68
2021/12/08 11:13:48;;;;;;;1.40;1.30;;;4.80;99.90;;;;;;5085026;28;20424;-68
2021/12/08 11:16:18;;;;;;;1.40;1.30;;;4.90;99.90;;;;;;5086011;28;20424;-68
2021/12/08 11:19:10;;;;;;;1.95;1.75;;;5.00;99.90;;;;;;5087926;28;20459;-68
2021/12/08 11:21:49;;;;;;;2.03;1.93;;;5.00;99.90;;;;;;5087538;28;20204;-68
2021/12/08 11:24:30;;;;;;;2.00;1.90;;;5.00;99.90;;;;;;5085119;28;20432;-68
2021/12/08 11:26:57;;;;;;;2.33;2.23;;;5.00;99.90;;;;;;5087657;28;20431;-68
2021/12/08 11:29:25;;;;;;;2.67;2.35;;;5.00;99.90;;;;;;5086607;28;20484;-68
2021/12/08 11:31:54;;;;;;;3.10;2.90;;;5.10;99.90;;;;;;5086573;28;20678;-68
2021/12/08 11:34:32;;;;;;;10.87;6.90;;;5.10;99.90;;;;;;5069671;28;20446;-69
2021/12/08 11:36:59;;;;;;;2.37;2.17;;;5.00;99.90;;;;;;5086328;28;20850;-69
2021/12/08 11:39:31;;;;;;;8.10;4.87;;;5.00;99.90;;;;;;5086463;28;21107;-68
2021/12/08 11:42:12;;;;;;;2.90;2.50;;;5.00;99.90;;;;;;5086029;28;20511;-68
2021/12/08 11:44:41;;;;;;;2.90;1.63;;;5.10;99.90;;;;;;5084362;28;20424;-68
2021/12/08 11:47:10;;;;;;;2.23;1.80;;;5.20;99.90;;;;;;5085514;28;20432;-68
2021/12/08 11:49:50;;;;;;;1.60;1.40;;;5.30;99.90;;;;;;5086058;28;20446;-68
2021/12/08 11:52:20;;;;;;;1.60;1.50;;;5.30;99.90;;;;;;5086186;28;21141;-68
2021/12/08 11:55:00;;;;;;;1.57;1.47;;;5.30;99.90;;;;;;5087259;28;20432;-68
2021/12/08 11:57:36;;;;;;;1.20;1.07;;;5.20;99.90;;;;;;5085389;28;20511;-68
2021/12/08 12:00:32;;;;;;;1.40;1.30;;;5.20;99.90;;;;;;5083080;28;21260;-68
2021/12/08 12:03:10;;;;;;;2.47;1.80;;;5.10;99.90;;;;;;5080136;28;20533;-68
2021/12/08 12:05:39;;;;;;;4.10;2.80;;;5.20;99.90;;;;;;5085370;28;20461;-68
2021/12/08 12:08:07;;;;;;;3.43;3.13;;;5.10;99.90;;;;;;5086162;28;20501;-68
2021/12/08 12:10:36;;;;;;;6.70;5.90;;;5.10;99.90;;;;;;5085774;28;20432;-68
2021/12/08 12:13:03;;;;;;;11.17;6.67;;;4.90;99.90;;;;;;5084543;28;20421;-68
2021/12/08 12:15:30;;;;;;;8.80;6.63;;;4.80;99.90;;;;;;5086189;28;20487;-68
2021/12/08 12:17:56;;;;;;;7.90;6.83;;;4.80;99.90;;;;;;5083192;28;20927;-68
2021/12/08 12:20:44;;;;;;;10.27;8.07;;;4.80;99.90;;;;;;5085457;28;20474;-68
2021/12/08 12:23:28;;;;;;;12.50;8.67;;;4.80;99.90;;;;;;5080269;28;21013;-68
2021/12/08 12:25:54;;;;;;;12.07;8.83;;;4.70;99.90;;;;;;5082538;28;20988;-68
2021/12/08 12:28:24;;;;;;;17.30;10.10;;;4.70;99.90;;;;;;5086420;28;20419;-68
2021/12/08 12:31:27;;;;;;;11.97;9.80;;;4.60;99.90;;;;;;5084810;28;20209;-68
2021/12/08 12:33:54;;;;;;;13.87;10.33;;;4.60;99.90;;;;;;5082901;28;20423;-68
2021/12/08 12:36:32;;;;;;;15.00;10.87;;;4.50;99.90;;;;;;5086647;28;20425;-68
2021/12/08 12:39:11;;;;;;;14.00;9.73;;;4.50;99.90;;;;;;5083720;28;20436;-68
2021/12/08 12:41:37;;;;;;;13.20;10.60;;;4.50;99.90;;;;;;5086864;28;20431;-68
2021/12/08 12:44:45;;;;;;;21.90;12.03;;;4.50;99.90;;;;;;5086621;28;20236;-68
2021/12/08 12:47:21;;;;;;;13.77;12.17;;;4.40;99.90;;;;;;5074020;28;20428;-68
2021/12/08 12:50:08;;;;;;;13.18;10.65;;;4.40;99.90;;;;;;5075207;28;21130;-68
2021/12/08 12:52:54;;;;;;;13.18;9.77;;;4.40;99.90;;;;;;5083312;28;20274;-68
2021/12/08 12:55:38;;;;;;;13.07;9.57;;;4.50;99.90;;;;;;5081428;28;20268;-68
2021/12/08 12:58:03;;;;;;;12.90;10.43;;;4.50;99.90;;;;;;5083592;28;20201;-68
2021/12/08 13:00:33;;;;;;;12.80;10.77;;;4.50;99.90;;;;;;5086007;28;20420;-68
2021/12/08 13:02:59;;;;;;;12.00;9.77;;;4.50;99.90;;;;;;5086118;28;20693;-68
2021/12/08 13:05:50;;;;;;;15.60;10.60;;;4.50;99.90;;;;;;5086197;28;20768;-68
2021/12/08 13:08:39;;;;;;;12.93;11.20;;;4.50;99.90;;;;;;5081414;28;20945;-68
2021/12/08 13:11:26;;;;;;;16.80;13.60;;;4.60;99.90;;;;;;5077771;28;20204;-68
2021/12/08 13:13:54;;;;;;;14.80;11.13;;;4.60;99.90;;;;;;5081498;28;20417;-68
2021/12/08 13:16:38;;;;;;;17.83;12.40;;;4.50;99.90;;;;;;5084771;28;20882;-68
2021/12/08 13:19:06;;;;;;;22.17;14.47;;;4.50;99.90;;;;;;5086199;28;20419;-68
2021/12/08 13:21:47;;;;;;;17.50;12.83;;;4.60;99.90;;;;;;5086090;28;20483;-69
2021/12/08 13:24:35;;;;;;;14.10;11.60;;;4.60;99.90;;;;;;5082306;28;20867;-68
2021/12/08 13:27:07;;;;;;;16.30;11.23;;;4.60;99.90;;;;;;5082593;28;21225;-69
2021/12/08 13:29:35;;;;;;;13.57;10.87;;;4.60;99.90;;;;;;5086091;28;21054;-68
2021/12/08 13:32:16;;;;;;;26.23;15.93;;;4.60;99.90;;;;;;5086342;28;20532;-68
2021/12/08 13:34:44;;;;;;;18.50;13.77;;;4.60;99.90;;;;;;5080935;28;21081;-69
2021/12/08 13:37:26;;;;;;;14.40;11.37;;;4.70;99.90;;;;;;5080887;28;20430;-68
2021/12/08 13:40:04;;;;;;;15.20;11.20;;;4.70;99.90;;;;;;5083562;28;20979;-69
2021/12/08 13:42:31;;;;;;;15.33;11.07;;;4.70;99.90;;;;;;5085776;28;20489;-69
2021/12/08 13:44:56;;;;;;;12.90;9.87;;;4.60;99.90;;;;;;5085922;28;20423;-68
2021/12/08 13:47:35;;;;;;;13.90;10.20;;;4.70;99.90;;;;;;5085841;28;20423;-68
2021/12/08 13:50:18;;;;;;;12.30;9.77;;;4.60;99.90;;;;;;5086176;28;20189;-69
2021/12/08 13:53:10;;;;;;;14.13;10.57;;;4.60;99.90;;;;;;5079926;28;20426;-69
2021/12/08 13:55:43;;;;;;;17.77;11.13;;;4.60;99.90;;;;;;5085395;28;20420;-69
2021/12/08 13:58:14;;;;;;;12.97;9.77;;;4.60;99.90;;;;;;5080759;28;20482;-69
2021/12/08 14:00:42;;;;;;;18.70;10.93;;;4.70;99.90;;;;;;5075499;28;20525;-68
2021/12/08 14:03:16;;;;;;;11.20;9.30;;;4.70;99.90;;;;;;5084358;28;20474;-69